Time;durP1;ratioP1;P1;durP2;ratioP2;P2;SDS_P1;SDS_P2;PMS_P1;PMS_P2;Temp;Humidity;BMP_temperature;BMP_pressure;BME280_temperature;BME280_humidity;BME280_pressure;Samples;Min_cycle;Max_cycle;Signal;HPM_P1;HPM_P2
2021/12/04 00:00:07;;;;;;;5.13;1.05;;;20.20;47.80;;;;;;2286506;62;20287;-65
2021/12/04 00:02:33;;;;;;;4.57;1.10;;;20.20;47.80;;;;;;2286554;62;20686;-65
2021/12/04 00:05:01;;;;;;;1.10;1.00;;;20.20;47.80;;;;;;2286687;62;20223;-65
2021/12/04 00:07:30;;;;;;;1.02;0.80;;;20.10;47.80;;;;;;2286456;62;20878;-65
2021/12/04 00:10:01;;;;;;;1.40;1.00;;;20.10;47.80;;;;;;2286334;62;20208;-65
2021/12/04 00:12:27;;;;;;;1.38;1.10;;;20.10;47.80;;;;;;2286503;62;20886;-65
2021/12/04 00:14:53;;;;;;;1.45;0.90;;;20.10;47.80;;;;;;2286440;62;20213;-65
2021/12/04 00:17:19;;;;;;;1.17;0.80;;;20.00;47.80;;;;;;2286447;62;20735;-65
2021/12/04 00:19:45;;;;;;;1.45;1.02;;;20.00;48.10;;;;;;2286448;62;20166;-65
2021/12/04 00:22:11;;;;;;;2.35;1.00;;;20.00;47.80;;;;;;2286364;62;20325;-65
2021/12/04 00:24:36;;;;;;;1.63;1.10;;;20.00;47.90;;;;;;2286388;62;20244;-65
2021/12/04 00:27:03;;;;;;;1.52;1.00;;;20.00;47.90;;;;;;2286387;62;20142;-65
2021/12/04 00:29:29;;;;;;;1.77;1.13;;;20.00;47.90;;;;;;2286324;62;20178;-65
2021/12/04 00:32:01;;;;;;;1.00;0.90;;;20.00;47.90;;;;;;2286380;62;20648;-66
2021/12/04 00:34:28;;;;;;;0.98;0.88;;;19.90;47.80;;;;;;2286137;62;20257;-66
2021/12/04 00:37:10;;;;;;;1.05;0.95;;;19.90;47.80;;;;;;2286381;62;20183;-65
2021/12/04 00:50:38;;;;;;;1.27;0.90;;;19.90;47.90;;;;;;2286224;62;20158;-66
2021/12/04 00:53:04;;;;;;;1.65;0.90;;;19.80;47.90;;;;;;2286223;62;20801;-66
2021/12/04 00:55:30;;;;;;;0.90;0.90;;;19.80;47.80;;;;;;2286203;62;20319;-65
2021/12/04 00:57:55;;;;;;;1.42;0.82;;;19.80;48.50;;;;;;2286213;62;20282;-65
2021/12/04 01:00:22;;;;;;;2.22;0.95;;;19.80;47.80;;;;;;2286216;62;20687;-65
2021/12/04 01:02:47;;;;;;;2.10;1.23;;;19.80;47.90;;;;;;2286130;62;20174;-66
2021/12/04 01:05:13;;;;;;;1.17;1.08;;;19.80;47.90;;;;;;2286123;62;20658;-67
2021/12/04 01:07:39;;;;;;;1.05;0.95;;;19.80;47.90;;;;;;2286129;62;20150;-64
2021/12/04 01:10:07;;;;;;;1.42;0.90;;;19.80;47.90;;;;;;2286099;62;20162;-67
2021/12/04 01:12:33;;;;;;;1.40;1.02;;;19.80;47.90;;;;;;2286151;62;20174;-66
2021/12/04 01:14:59;;;;;;;1.27;1.17;;;19.70;47.90;;;;;;2286049;62;20178;-67
2021/12/04 01:17:25;;;;;;;1.63;1.00;;;19.70;47.90;;;;;;2286133;62;20150;-65
2021/12/04 01:19:51;;;;;;;1.13;0.93;;;19.70;47.90;;;;;;2286076;62;20667;-67
2021/12/04 01:22:20;;;;;;;1.38;0.95;;;19.70;47.90;;;;;;2287148;62;20761;-65
2021/12/04 01:24:49;;;;;;;2.10;1.10;;;19.70;47.90;;;;;;2287447;62;20166;-65
2021/12/04 01:27:15;;;;;;;1.40;1.10;;;19.70;47.90;;;;;;2287423;62;20182;-66
2021/12/04 01:29:43;;;;;;;1.20;1.08;;;19.70;47.90;;;;;;2287394;62;20242;-67
2021/12/04 01:32:09;;;;;;;1.48;1.00;;;19.70;47.90;;;;;;2287427;62;20178;-65
2021/12/04 01:34:36;;;;;;;1.23;0.90;;;19.60;47.80;;;;;;2287278;62;20194;-65
2021/12/04 01:37:03;;;;;;;1.20;1.10;;;19.60;47.90;;;;;;2287383;62;20291;-65
2021/12/04 01:39:29;;;;;;;1.27;1.10;;;19.60;47.90;;;;;;2287296;62;20169;-66
2021/12/04 01:41:55;;;;;;;1.75;1.13;;;19.60;47.90;;;;;;2287366;62;20222;-67
2021/12/04 01:44:21;;;;;;;1.13;1.02;;;19.60;47.90;;;;;;2287282;62;20142;-66
2021/12/04 01:46:55;;;;;;;1.40;1.30;;;19.60;47.90;;;;;;2287279;62;20319;-65
2021/12/04 01:49:22;;;;;;;1.20;1.00;;;19.50;47.80;;;;;;2287336;62;20166;-65
2021/12/04 01:51:48;;;;;;;1.67;1.25;;;19.60;47.90;;;;;;2287261;62;20550;-66
2021/12/04 01:54:14;;;;;;;1.35;1.15;;;19.60;47.90;;;;;;2287163;62;20387;-65
2021/12/04 01:56:40;;;;;;;1.15;1.00;;;19.60;47.90;;;;;;2287228;62;20223;-64
2021/12/04 01:59:06;;;;;;;1.77;1.00;;;19.60;47.90;;;;;;2287239;62;20269;-65
2021/12/04 02:01:33;;;;;;;1.05;0.95;;;19.60;47.90;;;;;;2287215;62;20158;-65
2021/12/04 02:03:59;;;;;;;1.23;1.10;;;19.60;47.90;;;;;;2287142;62;20385;-65
2021/12/04 02:06:25;;;;;;;1.40;1.30;;;19.50;47.80;;;;;;2287202;62;20158;-65
2021/12/04 02:08:51;;;;;;;1.30;1.08;;;19.50;47.80;;;;;;2287142;62;20259;-64
2021/12/04 02:11:17;;;;;;;1.20;1.10;;;19.50;47.90;;;;;;2287137;62;20217;-65
2021/12/04 02:13:43;;;;;;;1.25;1.05;;;19.50;47.90;;;;;;2287174;62;20146;-65
2021/12/04 02:16:20;;;;;;;1.65;1.15;;;19.50;47.90;;;;;;2287125;62;20222;-65
2021/12/04 02:18:46;;;;;;;1.73;1.30;;;19.50;47.80;;;;;;2287161;62;20162;-65
2021/12/04 02:21:12;;;;;;;1.92;1.10;;;19.50;47.90;;;;;;2287123;62;20325;-64
2021/12/04 02:23:39;;;;;;;1.98;1.30;;;19.50;47.90;;;;;;2287068;62;20188;-65
2021/12/04 02:26:06;;;;;;;1.52;1.00;;;19.50;47.90;;;;;;2287116;62;20316;-64
2021/12/04 02:28:32;;;;;;;1.20;1.10;;;19.50;47.90;;;;;;2287080;62;20756;-65
2021/12/04 02:30:58;;;;;;;1.17;1.08;;;19.50;47.90;;;;;;2287035;62;20162;-65
2021/12/04 02:33:24;;;;;;;1.23;1.13;;;19.50;47.90;;;;;;2286897;62;20588;-65
2021/12/04 02:35:54;;;;;;;1.40;1.30;;;19.40;47.80;;;;;;2286883;62;20204;-65
2021/12/04 02:38:23;;;;;;;2.15;1.10;;;19.40;47.80;;;;;;2286989;62;20192;-65
2021/12/04 02:40:50;;;;;;;1.75;1.40;;;19.40;47.90;;;;;;2286982;62;20192;-64
2021/12/04 02:43:16;;;;;;;1.25;1.15;;;19.50;47.90;;;;;;2287001;62;20196;-65
2021/12/04 02:45:43;;;;;;;1.20;0.93;;;19.40;47.80;;;;;;2286950;62;20763;-65
2021/12/04 02:48:12;;;;;;;1.08;0.98;;;19.40;47.90;;;;;;2286994;62;20576;-66
2021/12/04 02:50:38;;;;;;;1.77;1.40;;;19.30;47.80;;;;;;2286937;62;20690;-65
2021/12/04 02:53:04;;;;;;;1.52;1.10;;;19.40;47.80;;;;;;2286921;62;20158;-65
2021/12/04 02:55:30;;;;;;;1.52;1.40;;;19.40;47.80;;;;;;2286896;62;20707;-65
2021/12/04 02:57:56;;;;;;;1.55;1.20;;;19.40;47.90;;;;;;2286893;62;20322;-65
2021/12/04 03:00:24;;;;;;;1.30;1.20;;;19.40;47.90;;;;;;2286870;62;20319;-64
2021/12/04 03:02:50;;;;;;;1.25;1.10;;;19.40;47.90;;;;;;2286824;62;20174;-64
2021/12/04 03:05:24;;;;;;;1.15;1.05;;;19.40;47.90;;;;;;2286772;62;20150;-64
2021/12/04 03:07:55;;;;;;;1.15;0.95;;;19.30;48.40;;;;;;2286822;62;20191;-65
2021/12/04 03:10:21;;;;;;;1.33;1.08;;;19.40;47.90;;;;;;2286843;62;20245;-65
2021/12/04 03:12:47;;;;;;;1.50;1.10;;;19.30;47.80;;;;;;2286825;62;20691;-65
2021/12/04 03:15:14;;;;;;;1.20;1.08;;;19.30;47.80;;;;;;2286756;62;20195;-65
2021/12/04 03:17:39;;;;;;;1.92;1.30;;;19.30;47.80;;;;;;2286765;62;20312;-65
2021/12/04 03:20:06;;;;;;;1.25;1.15;;;19.30;47.80;;;;;;2286735;62;20173;-65
2021/12/04 03:22:32;;;;;;;1.80;1.20;;;19.30;47.80;;;;;;2286772;62;20195;-65
2021/12/04 03:24:59;;;;;;;1.85;1.35;;;19.30;47.80;;;;;;2286647;62;20158;-65
2021/12/04 03:27:27;;;;;;;1.23;1.02;;;19.30;47.80;;;;;;2286742;62;20166;-65
2021/12/04 03:29:59;;;;;;;1.20;1.08;;;19.30;47.80;;;;;;2286732;62;20165;-65
2021/12/04 03:32:55;;;;;;;1.33;1.23;;;19.30;47.80;;;;;;2286687;62;20166;-65
2021/12/04 03:35:26;;;;;;;1.33;1.23;;;19.30;47.80;;;;;;2286475;62;20323;-65
2021/12/04 03:43:06;;;;;;;1.17;1.08;;;19.20;47.80;;;;;;2286464;62;20222;-64
2021/12/04 03:45:34;;;;;;;1.00;0.90;;;19.20;47.80;;;;;;2286533;62;20712;-65
2021/12/04 03:48:10;;;;;;;1.88;1.40;;;19.30;47.80;;;;;;2286626;62;20174;-65
2021/12/04 03:50:38;;;;;;;1.63;1.10;;;19.20;47.80;;;;;;2286598;62;20173;-65
2021/12/04 03:53:04;;;;;;;1.45;1.15;;;19.20;47.80;;;;;;2286560;62;20371;-65
2021/12/04 03:55:29;;;;;;;1.35;1.25;;;19.20;47.80;;;;;;2286545;62;20243;-65
2021/12/04 03:57:55;;;;;;;1.25;1.13;;;19.20;47.80;;;;;;2286568;62;20631;-65
2021/12/04 04:00:25;;;;;;;1.30;1.08;;;19.20;47.80;;;;;;2286486;62;20400;-65
2021/12/04 04:02:51;;;;;;;1.48;1.38;;;19.20;47.80;;;;;;2286539;62;20588;-65
2021/12/04 04:05:17;;;;;;;1.30;1.13;;;19.20;47.80;;;;;;2286426;62;20231;-65
2021/12/04 04:07:43;;;;;;;1.33;1.20;;;19.30;47.80;;;;;;2286535;62;20183;-65
2021/12/04 04:10:09;;;;;;;1.58;1.40;;;19.20;47.80;;;;;;2286448;62;20795;-65
2021/12/04 04:12:35;;;;;;;1.27;1.17;;;19.20;47.80;;;;;;2286479;62;20169;-65
2021/12/04 04:15:00;;;;;;;1.30;1.05;;;19.20;47.80;;;;;;2286453;62;20150;-65
2021/12/04 04:17:31;;;;;;;1.25;1.10;;;19.20;47.80;;;;;;2286458;62;20299;-65
2021/12/04 04:19:56;;;;;;;1.75;0.95;;;19.20;47.80;;;;;;2286440;62;20186;-65
2021/12/04 04:22:22;;;;;;;1.77;1.35;;;19.20;47.80;;;;;;2286399;62;20205;-65
2021/12/04 04:24:48;;;;;;;1.40;1.10;;;19.20;47.80;;;;;;2286378;62;20186;-65
2021/12/04 04:27:14;;;;;;;1.38;1.10;;;19.10;47.70;;;;;;2286372;62;20158;-65
2021/12/04 04:29:40;;;;;;;1.40;1.30;;;19.20;47.80;;;;;;2286413;62;20164;-64
2021/12/04 04:32:06;;;;;;;1.60;1.10;;;19.10;47.70;;;;;;2286403;62;20460;-65
2021/12/04 04:34:35;;;;;;;1.20;1.10;;;19.10;47.70;;;;;;2286177;62;20198;-65
2021/12/04 04:37:23;;;;;;;1.20;1.10;;;19.10;47.80;;;;;;2286354;62;20314;-65
2021/12/04 05:13:00;;;;;;;1.30;1.15;;;19.10;47.70;;;;;;2253814;63;20225;-65
2021/12/04 05:15:56;;;;;;;1.10;1.00;;;19.00;47.70;;;;;;2253761;63;20177;-65
2021/12/04 05:20:54;;;;;;;1.10;1.00;;;19.00;47.70;;;;;;2253763;63;20168;-65
2021/12/04 05:23:21;;;;;;;1.25;1.15;;;19.00;47.70;;;;;;2253709;63;20314;-65
2021/12/04 05:25:47;;;;;;;1.73;1.05;;;19.00;47.70;;;;;;2253764;63;20216;-66
2021/12/04 05:28:13;;;;;;;1.52;1.30;;;19.00;47.70;;;;;;2253701;63;20189;-65
2021/12/04 05:30:39;;;;;;;1.23;0.90;;;19.10;47.70;;;;;;2253757;63;20259;-67
2021/12/04 05:33:05;;;;;;;1.33;0.90;;;19.10;47.70;;;;;;2272961;62;20330;-66
2021/12/04 05:35:32;;;;;;;1.38;1.27;;;19.10;47.70;;;;;;2287147;62;20675;-66
2021/12/04 05:37:58;;;;;;;1.55;1.10;;;19.20;47.70;;;;;;2287393;62;20281;-67
2021/12/04 05:40:24;;;;;;;1.20;1.10;;;19.30;47.60;;;;;;2287299;62;20139;-66
2021/12/04 05:42:50;;;;;;;1.13;1.00;;;19.30;47.50;;;;;;2287320;62;20162;-65
2021/12/04 05:45:22;;;;;;;1.20;1.10;;;19.40;47.40;;;;;;2287377;62;20693;-65
2021/12/04 05:48:14;;;;;;;1.30;1.00;;;19.50;47.30;;;;;;2287377;62;20756;-66
2021/12/04 05:53:30;;;;;;;1.15;0.90;;;19.80;47.20;;;;;;2287332;62;20218;-65
2021/12/04 05:55:57;;;;;;;1.15;0.95;;;19.90;47.10;;;;;;2287263;62;20177;-65
2021/12/04 05:58:30;;;;;;;1.48;0.90;;;20.00;47.00;;;;;;2287296;62;20176;-65
2021/12/04 06:00:59;;;;;;;1.15;0.90;;;20.00;46.80;;;;;;2287254;62;20173;-65
2021/12/04 06:03:24;;;;;;;1.20;0.90;;;20.10;46.70;;;;;;2287215;62;20190;-65
2021/12/04 06:05:51;;;;;;;0.70;0.70;;;20.20;46.70;;;;;;2287227;62;20307;-65
2021/12/04 06:08:17;;;;;;;1.40;1.00;;;20.20;46.60;;;;;;2287087;62;20166;-65
2021/12/04 06:10:43;;;;;;;2.22;0.90;;;20.20;46.60;;;;;;2287218;62;20184;-65
2021/12/04 06:13:09;;;;;;;0.82;0.82;;;20.30;46.50;;;;;;2287264;62;20421;-65
2021/12/04 06:15:35;;;;;;;0.90;0.85;;;20.30;46.50;;;;;;2287202;62;20162;-65
2021/12/04 06:18:01;;;;;;;0.95;0.85;;;20.20;46.40;;;;;;2287128;62;20205;-65
2021/12/04 06:23:12;;;;;;;1.02;0.85;;;20.30;46.40;;;;;;2287073;62;20204;-65
2021/12/04 06:25:39;;;;;;;0.93;0.90;;;20.30;46.40;;;;;;2287113;62;20252;-65
2021/12/04 06:28:05;;;;;;;0.80;0.73;;;20.30;46.30;;;;;;2287123;62;20268;-65
2021/12/04 06:30:39;;;;;;;0.73;0.70;;;20.30;46.30;;;;;;2287056;62;20158;-66
2021/12/04 06:33:08;;;;;;;1.65;0.90;;;20.30;46.20;;;;;;2287118;62;20170;-65
2021/12/04 06:35:36;;;;;;;1.95;1.00;;;20.40;46.30;;;;;;2286878;62;20189;-66
2021/12/04 06:38:03;;;;;;;1.35;0.93;;;20.30;46.20;;;;;;2287067;62;20271;-64
2021/12/04 06:40:29;;;;;;;1.50;0.88;;;20.40;46.90;;;;;;2287048;62;20214;-65
2021/12/04 06:42:59;;;;;;;1.00;0.90;;;20.40;46.30;;;;;;2287450;62;20278;-64
2021/12/04 06:45:28;;;;;;;1.50;1.10;;;20.40;46.20;;;;;;2286990;62;20687;-64
2021/12/04 06:48:02;;;;;;;1.15;0.80;;;20.40;46.20;;;;;;2287003;62;20199;-64
2021/12/04 06:50:44;;;;;;;1.92;0.95;;;20.40;46.20;;;;;;2286926;62;20614;-64
2021/12/04 06:53:19;;;;;;;1.38;0.85;;;20.40;46.20;;;;;;2286958;62;20191;-64
2021/12/04 06:55:49;;;;;;;2.50;1.20;;;20.40;46.30;;;;;;2286842;62;20183;-64
2021/12/04 06:58:16;;;;;;;2.53;1.20;;;20.40;46.30;;;;;;2286886;62;20698;-65
2021/12/04 07:00:43;;;;;;;1.63;0.93;;;20.40;46.30;;;;;;2286826;62;20310;-64
2021/12/04 07:03:09;;;;;;;3.53;1.00;;;20.40;46.30;;;;;;2286931;62;20166;-64
2021/12/04 07:05:35;;;;;;;1.85;1.02;;;20.50;46.30;;;;;;2287221;62;20324;-65
2021/12/04 07:08:01;;;;;;;3.47;1.30;;;20.50;46.30;;;;;;2287614;62;20631;-65
2021/12/04 07:10:27;;;;;;;4.45;1.58;;;20.50;46.30;;;;;;2286842;62;20206;-64
2021/12/04 07:12:53;;;;;;;2.58;1.40;;;20.50;46.30;;;;;;2286865;62;20374;-64
2021/12/04 07:15:19;;;;;;;4.07;1.40;;;20.50;46.30;;;;;;2286764;62;20229;-64
2021/12/04 07:17:45;;;;;;;2.80;1.30;;;20.50;46.30;;;;;;2286666;62;20644;-65
2021/12/04 07:20:11;;;;;;;2.40;1.30;;;20.50;46.30;;;;;;2286525;62;20303;-64
2021/12/04 07:22:37;;;;;;;2.72;1.38;;;20.50;46.30;;;;;;2286860;62;20169;-64
2021/12/04 07:25:04;;;;;;;2.85;1.15;;;20.60;46.40;;;;;;2286727;62;20153;-64
2021/12/04 07:27:30;;;;;;;2.33;1.38;;;20.60;46.40;;;;;;2286812;62;20170;-64
2021/12/04 07:29:56;;;;;;;3.50;1.35;;;20.60;46.40;;;;;;2286732;62;20139;-64
2021/12/04 07:32:24;;;;;;;1.90;1.05;;;20.60;46.40;;;;;;2286721;62;20656;-64
2021/12/04 07:34:51;;;;;;;2.63;1.27;;;20.60;46.40;;;;;;2286527;62;20584;-65
2021/12/04 07:37:16;;;;;;;3.42;1.50;;;20.60;46.40;;;;;;2286700;62;20192;-64
2021/12/04 07:39:42;;;;;;;1.65;1.17;;;20.60;46.40;;;;;;2286642;62;20153;-64
2021/12/04 07:42:08;;;;;;;4.00;1.25;;;20.60;46.40;;;;;;2286656;62;20197;-65
2021/12/04 07:44:34;;;;;;;1.83;0.98;;;20.60;47.10;;;;;;2286649;62;20568;-64
2021/12/04 07:47:00;;;;;;;3.22;1.27;;;20.60;46.50;;;;;;2286684;62;20327;-65
2021/12/04 07:49:26;;;;;;;3.67;1.27;;;20.60;46.50;;;;;;2286680;62;20557;-64
2021/12/04 07:51:52;;;;;;;2.63;1.10;;;20.60;46.50;;;;;;2286607;62;20162;-65
2021/12/04 07:54:18;;;;;;;2.17;1.05;;;20.60;46.50;;;;;;2286558;62;20699;-64
2021/12/04 07:56:46;;;;;;;2.92;1.20;;;20.50;46.50;;;;;;2286577;62;20182;-64
2021/12/04 07:59:12;;;;;;;3.50;1.15;;;20.60;46.50;;;;;;2286619;62;20647;-64
2021/12/04 08:01:38;;;;;;;2.65;1.17;;;20.60;46.50;;;;;;2286508;62;20176;-64
2021/12/04 08:04:08;;;;;;;1.65;1.02;;;20.60;46.50;;;;;;2286504;62;20298;-64
2021/12/04 08:06:35;;;;;;;3.05;1.30;;;20.60;46.50;;;;;;2286571;62;20158;-64
2021/12/04 08:09:02;;;;;;;3.13;1.13;;;20.60;46.50;;;;;;2286496;62;20225;-64
2021/12/04 08:11:28;;;;;;;2.08;1.00;;;20.60;46.50;;;;;;2286549;62;20174;-65
2021/12/04 08:13:54;;;;;;;3.17;1.13;;;20.60;46.50;;;;;;2286502;62;20402;-65
2021/12/04 08:16:24;;;;;;;1.30;1.10;;;20.60;46.60;;;;;;2286407;62;20578;-65
2021/12/04 08:18:54;;;;;;;2.10;1.13;;;20.60;46.60;;;;;;2286486;62;20198;-64
2021/12/04 08:21:21;;;;;;;2.17;1.40;;;20.50;46.50;;;;;;2286474;62;20612;-64
2021/12/04 08:23:48;;;;;;;1.95;1.23;;;20.50;46.50;;;;;;2286402;62;20177;-64
2021/12/04 08:26:15;;;;;;;1.95;1.23;;;20.50;46.60;;;;;;2286443;62;20166;-65
2021/12/04 08:28:41;;;;;;;2.40;1.20;;;20.40;46.50;;;;;;2286433;62;20848;-64
2021/12/04 08:31:10;;;;;;;2.67;1.10;;;20.40;46.50;;;;;;2286269;62;20196;-64
2021/12/04 08:33:37;;;;;;;2.67;1.20;;;20.40;46.60;;;;;;2286252;62;20221;-64
2021/12/04 08:36:04;;;;;;;3.40;1.00;;;20.30;46.60;;;;;;2286332;62;20807;-63
2021/12/04 08:38:32;;;;;;;1.23;1.00;;;20.30;46.60;;;;;;2286310;62;20217;-65
2021/12/04 08:41:02;;;;;;;1.42;0.93;;;20.20;46.60;;;;;;2286370;62;20193;-64
2021/12/04 08:43:28;;;;;;;2.05;1.17;;;20.20;46.70;;;;;;2286350;62;20173;-64
2021/12/04 08:45:55;;;;;;;1.88;0.90;;;20.10;46.60;;;;;;2286354;62;20194;-65
2021/12/04 08:48:22;;;;;;;3.40;1.42;;;20.10;46.70;;;;;;2286149;62;20193;-63
2021/12/04 08:50:48;;;;;;;2.88;1.02;;;20.10;46.70;;;;;;2286265;62;20166;-64
2021/12/04 08:53:14;;;;;;;2.50;1.00;;;20.10;46.80;;;;;;2286270;62;20572;-64
2021/12/04 08:55:43;;;;;;;1.92;1.10;;;20.00;46.80;;;;;;2286180;62;20159;-64
2021/12/04 08:58:11;;;;;;;2.78;1.38;;;20.00;46.80;;;;;;2286258;62;20285;-65
2021/12/04 09:00:49;;;;;;;2.45;1.13;;;20.00;46.90;;;;;;2286232;62;20174;-65
2021/12/04 09:03:18;;;;;;;2.47;0.98;;;20.00;46.90;;;;;;2286209;62;20161;-64
2021/12/04 09:05:44;;;;;;;2.55;1.10;;;19.90;46.90;;;;;;2286201;62;20203;-64
2021/12/04 09:08:11;;;;;;;2.22;1.25;;;19.90;46.90;;;;;;2286154;62;20563;-65
2021/12/04 09:10:41;;;;;;;3.00;1.30;;;19.90;46.90;;;;;;2286122;62;20249;-64
2021/12/04 09:13:08;;;;;;;2.40;1.05;;;19.90;46.90;;;;;;2286173;62;20233;-64
2021/12/04 09:15:35;;;;;;;4.32;1.20;;;19.80;46.90;;;;;;2286163;62;20180;-65
2021/12/04 09:18:01;;;;;;;1.00;0.80;;;19.80;46.90;;;;;;2286017;62;20165;-66
2021/12/04 09:20:30;;;;;;;2.78;1.10;;;19.80;47.00;;;;;;2286128;62;20225;-65
2021/12/04 09:22:57;;;;;;;2.58;1.10;;;19.80;47.00;;;;;;2286048;62;20178;-66
2021/12/04 09:25:26;;;;;;;2.13;0.93;;;19.70;46.90;;;;;;2286073;62;20192;-65
2021/12/04 09:59:16;;;;;;;2.22;1.00;;;19.60;47.00;;;;;;2285950;62;20808;-64
2021/12/04 10:01:07;;;;;;;2.80;1.30;;;19.50;47.30;;;;;;2287249;62;20175;-64
2021/12/04 10:03:45;;;;;;;2.10;1.27;;;19.40;47.30;;;;;;2286547;62;20740;-64
2021/12/04 10:22:23;;;;;;;2.72;1.05;;;19.50;47.40;;;;;;2287112;62;20652;-63
2021/12/04 10:33:23;;;;;;;4.00;1.40;;;19.40;47.50;;;;;;2274069;62;20209;-63
2021/12/04 10:35:49;;;;;;;2.63;1.27;;;19.50;47.60;;;;;;2286906;62;20686;-63
2021/12/04 10:38:25;;;;;;;1.95;1.17;;;19.40;47.60;;;;;;2287066;62;20199;-63
2021/12/04 10:40:51;;;;;;;;;;;19.40;47.60;;;;;;2287377;62;20677;-64
2021/12/04 10:43:24;;;;;;;2.35;1.00;;;19.40;47.70;;;;;;2287026;62;20622;-63
2021/12/04 10:45:57;;;;;;;2.92;1.02;;;19.30;47.70;;;;;;2286972;62;20235;-63
2021/12/04 10:48:27;;;;;;;2.30;1.40;;;19.40;48.40;;;;;;2287004;62;20154;-64
2021/12/04 10:52:13;;;;;;;2.63;1.08;;;19.40;47.70;;;;;;2286950;62;20182;-64
2021/12/04 10:54:23;;;;;;;2.65;0.80;;;19.40;48.40;;;;;;2279528;62;20327;-64
2021/12/04 10:59:42;;;;;;;3.83;1.13;;;19.40;47.70;;;;;;2286961;62;20278;-63
2021/12/04 11:02:31;;;;;;;3.75;1.50;;;19.40;47.70;;;;;;2286940;62;20707;-64
2021/12/04 11:05:04;;;;;;;2.90;1.30;;;19.40;47.70;;;;;;2286599;62;20198;-65
2021/12/04 11:18:53;;;;;;;3.30;1.52;;;19.40;48.40;;;;;;2284520;62;20218;-64
2021/12/04 11:26:53;;;;;;;;;;;19.20;47.70;;;;;;2278908;62;20231;-63
2021/12/04 11:38:05;;;;;;;2.60;1.92;;;19.30;47.80;;;;;;2278520;62;20261;-63
2021/12/04 11:43:10;;;;;;;3.53;1.95;;;19.30;47.90;;;;;;2278443;62;20175;-63
2021/12/04 11:46:12;;;;;;;4.20;2.38;;;19.30;48.00;;;;;;2278472;62;20170;-63
2021/12/04 11:48:36;;;;;;;8.93;3.28;;;19.30;48.20;;;;;;2277951;62;20171;-63
2021/12/04 11:51:11;;;;;;;8.65;3.67;;;19.40;48.70;;;;;;2278366;62;20195;-64
2021/12/04 11:53:37;;;;;;;7.13;3.38;;;19.40;48.90;;;;;;2278356;62;20268;-63
2021/12/04 11:56:03;;;;;;;6.25;3.03;;;19.40;48.90;;;;;;2278370;62;20166;-63
2021/12/04 11:58:40;;;;;;;6.07;3.00;;;19.40;49.00;;;;;;2278430;62;20171;-64
2021/12/04 12:01:19;;;;;;;7.45;3.22;;;19.40;49.20;;;;;;2278441;62;20315;-64
2021/12/04 12:03:55;;;;;;;6.32;2.90;;;19.40;49.30;;;;;;2278276;62;20170;-64
2021/12/04 12:06:32;;;;;;;4.35;3.08;;;19.40;49.30;;;;;;2278181;62;20375;-64
2021/12/04 12:09:12;;;;;;;3.92;2.85;;;19.40;49.50;;;;;;2278304;62;20593;-63
2021/12/04 12:11:46;;;;;;;5.82;2.90;;;19.40;49.50;;;;;;2278273;62;20171;-64
2021/12/04 12:14:14;;;;;;;4.82;3.17;;;19.40;49.50;;;;;;2278384;62;20217;-64
2021/12/04 12:16:47;;;;;;;5.60;4.05;;;19.30;49.50;;;;;;2278229;62;20744;-64
2021/12/04 12:19:30;;;;;;;7.00;3.35;;;19.30;49.70;;;;;;2278243;62;20174;-64
2021/12/04 12:22:02;;;;;;;8.30;3.92;;;19.30;49.80;;;;;;2278267;62;20155;-64
2021/12/04 12:27:25;;;;;;;4.85;3.35;;;19.40;50.10;;;;;;2278197;62;20184;-64
2021/12/04 12:38:29;;;;;;;6.20;3.00;;;19.40;50.40;;;;;;2278188;63;20179;-64
2021/12/04 12:41:16;;;;;;;7.18;2.78;;;19.40;50.50;;;;;;2278158;63;20225;-64
2021/12/04 12:44:17;;;;;;;4.60;2.95;;;19.50;50.60;;;;;;2278069;63;20638;-63
2021/12/04 12:46:52;;;;;;;6.90;3.25;;;19.50;50.60;;;;;;2278097;63;20204;-64
2021/12/04 12:49:21;;;;;;;;;;;19.40;50.60;;;;;;2278559;63;20556;-64
2021/12/04 12:51:59;;;;;;;5.47;2.83;;;19.40;50.60;;;;;;2278145;63;20445;-65
2021/12/04 12:54:51;;;;;;;5.50;3.38;;;19.40;50.70;;;;;;2278049;63;20191;-66
2021/12/04 12:57:25;;;;;;;4.70;2.92;;;19.40;50.70;;;;;;2278122;63;20187;-64
2021/12/04 13:14:27;;;;;;;6.05;3.33;;;19.40;50.90;;;;;;2278034;63;20183;-64
2021/12/04 13:16:56;;;;;;;4.72;3.13;;;19.40;51.20;;;;;;2278330;62;20795;-65
2021/12/04 13:19:24;;;;;;;6.43;3.30;;;19.40;51.20;;;;;;2279292;62;20315;-64
2021/12/04 13:21:56;;;;;;;5.38;3.10;;;19.40;51.30;;;;;;2279289;62;20582;-63
2021/12/04 13:24:25;;;;;;;5.43;2.83;;;19.40;51.40;;;;;;2279263;62;20307;-64
2021/12/04 13:26:52;;;;;;;3.58;3.10;;;19.40;51.50;;;;;;2279211;62;20224;-65
2021/12/04 13:29:22;;;;;;;4.75;3.15;;;19.40;51.50;;;;;;2279230;62;20811;-65
2021/12/04 13:31:55;;;;;;;5.68;3.00;;;19.40;51.50;;;;;;2279227;62;20210;-65
2021/12/04 13:34:26;;;;;;;6.22;3.33;;;19.40;51.60;;;;;;2279206;62;20371;-65
2021/12/04 13:36:53;;;;;;;8.70;3.83;;;19.40;51.50;;;;;;2279172;62;20179;-64
2021/12/04 13:39:20;;;;;;;5.68;3.33;;;19.40;51.50;;;;;;2279209;62;20195;-66
2021/12/04 13:41:47;;;;;;;5.95;3.50;;;19.40;52.00;;;;;;2279150;62;20279;-67
2021/12/04 13:44:15;;;;;;;13.63;4.18;;;19.40;51.50;;;;;;2279163;62;20312;-65
2021/12/04 13:46:44;;;;;;;7.88;3.42;;;19.40;51.60;;;;;;2279129;62;20672;-64
2021/12/04 13:49:13;;;;;;;10.23;3.53;;;19.30;51.60;;;;;;2279193;62;20224;-65
2021/12/04 13:51:39;;;;;;;6.43;3.33;;;19.30;51.50;;;;;;2279087;62;20230;-65
2021/12/04 13:54:06;;;;;;;5.57;3.20;;;19.30;51.50;;;;;;2279145;62;20167;-66
2021/12/04 13:56:33;;;;;;;7.20;3.67;;;19.40;51.50;;;;;;2279044;62;20158;-65
2021/12/04 13:59:02;;;;;;;6.50;3.30;;;19.30;51.40;;;;;;2279166;62;20166;-65
2021/12/04 14:01:30;;;;;;;5.05;3.33;;;19.40;51.40;;;;;;2278986;62;20267;-65
2021/12/04 14:03:59;;;;;;;6.82;3.50;;;19.40;51.40;;;;;;2279073;62;20312;-66
2021/12/04 14:06:27;;;;;;;6.90;3.40;;;19.40;51.40;;;;;;2279103;62;20159;-64
2021/12/04 14:09:04;;;;;;;6.38;3.05;;;19.40;51.30;;;;;;2279022;62;20187;-65
2021/12/04 14:11:37;;;;;;;8.73;3.42;;;19.40;51.30;;;;;;2279009;62;20197;-65
2021/12/04 14:14:22;;;;;;;8.43;3.10;;;19.40;51.30;;;;;;2278959;62;20241;-64
2021/12/04 14:16:52;;;;;;;6.55;3.85;;;19.40;51.20;;;;;;2279010;62;20703;-66
2021/12/04 14:19:19;;;;;;;5.45;3.30;;;19.40;51.20;;;;;;2278978;62;20184;-65
2021/12/04 14:22:01;;;;;;;6.30;3.22;;;19.40;51.10;;;;;;2278922;62;20210;-65
2021/12/04 14:24:37;;;;;;;5.10;3.15;;;19.30;51.00;;;;;;2278898;62;20339;-64
2021/12/04 14:27:05;;;;;;;6.57;3.10;;;19.40;51.10;;;;;;2278879;62;20180;-63
2021/12/04 14:29:41;;;;;;;4.53;3.08;;;19.40;51.00;;;;;;2278850;62;20210;-64
2021/12/04 14:32:08;;;;;;;8.35;3.80;;;19.40;51.00;;;;;;2278813;62;20158;-64
2021/12/04 14:34:35;;;;;;;4.00;2.85;;;19.40;50.90;;;;;;2278803;62;20204;-64
2021/12/04 14:37:18;;;;;;;6.05;3.30;;;19.40;50.90;;;;;;2278874;62;20640;-65
2021/12/04 14:39:47;;;;;;;5.45;3.28;;;19.40;50.80;;;;;;2278838;62;20188;-64
2021/12/04 14:42:15;;;;;;;5.95;3.50;;;19.30;50.70;;;;;;2278784;62;20310;-64
2021/12/04 14:44:46;;;;;;;5.53;3.30;;;19.40;50.70;;;;;;2278747;62;20764;-64
2021/12/04 14:47:12;;;;;;;8.73;3.28;;;19.40;50.70;;;;;;2278859;62;20682;-64
2021/12/04 14:49:41;;;;;;;6.90;3.90;;;19.40;50.60;;;;;;2278887;62;20351;-64
2021/12/04 14:52:07;;;;;;;5.00;3.63;;;19.40;50.50;;;;;;2278830;62;20186;-64
2021/12/04 14:54:35;;;;;;;9.98;3.30;;;19.40;50.50;;;;;;2278786;62;20304;-64
2021/12/04 14:57:11;;;;;;;6.20;3.78;;;19.40;50.40;;;;;;2278761;62;20214;-64
2021/12/04 14:59:37;;;;;;;7.97;3.50;;;19.40;50.40;;;;;;2278751;62;20175;-64
2021/12/04 15:02:16;;;;;;;5.72;3.15;;;19.40;50.40;;;;;;2278757;62;20205;-64
2021/12/04 15:04:43;;;;;;;6.57;3.22;;;19.40;50.30;;;;;;2278725;62;20188;-64
2021/12/04 15:07:21;;;;;;;4.53;3.42;;;19.40;50.30;;;;;;2278733;62;20176;-64
2021/12/04 15:09:47;;;;;;;5.75;3.40;;;19.40;50.20;;;;;;2278629;62;20199;-64
2021/12/04 15:12:34;;;;;;;6.15;3.53;;;19.40;50.20;;;;;;2278497;62;20184;-63
2021/12/04 15:15:07;;;;;;;4.70;3.40;;;19.40;50.20;;;;;;2278521;62;20276;-64
2021/12/04 15:17:34;;;;;;;7.75;3.60;;;19.40;50.20;;;;;;2278633;62;20798;-64
2021/12/04 15:20:09;;;;;;;6.10;3.30;;;19.30;50.20;;;;;;2278704;62;20209;-64
2021/12/04 15:22:42;;;;;;;5.83;3.83;;;19.30;50.20;;;;;;2278597;62;20190;-65
2021/12/04 15:25:14;;;;;;;6.03;4.05;;;19.40;50.30;;;;;;2278591;62;20803;-63
2021/12/04 15:27:40;;;;;;;4.80;3.38;;;19.40;50.30;;;;;;2278523;62;20545;-64
2021/12/04 15:30:10;;;;;;;8.15;3.30;;;19.40;50.20;;;;;;2278542;62;20658;-64
2021/12/04 15:32:39;;;;;;;6.28;3.72;;;19.40;50.30;;;;;;2278508;62;20653;-64
2021/12/04 15:35:17;;;;;;;5.97;3.25;;;19.40;50.30;;;;;;2278400;62;20158;-64
2021/12/04 15:37:53;;;;;;;12.15;3.78;;;19.40;50.30;;;;;;2278525;62;20569;-63
2021/12/04 15:40:26;;;;;;;5.13;3.60;;;19.40;50.40;;;;;;2278029;62;20191;-64
2021/12/04 15:43:13;;;;;;;6.93;3.28;;;19.40;50.40;;;;;;2278489;62;20188;-64
2021/12/04 15:45:54;;;;;;;4.97;3.28;;;19.40;50.50;;;;;;2278383;62;20570;-63
2021/12/04 15:48:53;;;;;;;5.97;3.47;;;19.40;50.50;;;;;;2278465;62;20180;-63